Time;durP1;ratioP1;P1;durP2;ratioP2;P2;SDS_P1;SDS_P2;PMS_P1;PMS_P2;Temp;Humidity;BMP_temperature;BMP_pressure;BME280_temperature;BME280_humidity;BME280_pressure;Samples;Min_cycle;Max_cycle;Signal;HPM_P1;HPM_P2
2022/02/13 00:01:10;;;;;;;17.88;10.57;;;;;;;10.12;44.58;96404.56;4952613;29;20594;-68
2022/02/13 00:03:37;;;;;;;14.02;10.52;;;;;;;10.24;44.36;96387.13;4951500;29;20326;-70
2022/02/13 00:06:04;;;;;;;13.52;10.68;;;;;;;9.74;44.77;96416.94;4935073;29;20200;-70
2022/02/13 00:08:32;;;;;;;13.77;10.43;;;;;;;9.84;45.37;96412.03;4952873;29;20215;-68
2022/02/13 00:11:16;;;;;;;13.57;10.60;;;;;;;9.89;45.12;96409.59;4938762;29;20289;-73
2022/02/13 00:13:44;;;;;;;12.35;9.75;;;;;;;9.71;44.53;96409.50;4951889;29;20227;-70
2022/02/13 00:16:11;;;;;;;12.50;9.18;;;;;;;9.77;44.11;96403.41;4951790;28;20865;-70
2022/02/13 00:18:38;;;;;;;12.02;8.43;;;;;;;10.12;43.62;96421.09;4951684;29;20266;-68
2022/02/13 00:21:21;;;;;;;11.30;8.65;;;;;;;10.43;42.95;96407.09;4952389;29;20714;-70
2022/02/13 00:23:48;;;;;;;9.95;7.50;;;;;;;10.14;42.90;96405.94;4951053;29;20323;-69
2022/02/13 00:26:15;;;;;;;11.55;8.38;;;;;;;9.91;43.06;96416.19;4951276;29;20212;-70
2022/02/13 00:28:42;;;;;;;10.13;7.10;;;;;;;9.80;42.67;96405.59;4950621;29;20839;-70
2022/02/13 00:31:09;;;;;;;12.02;7.22;;;;;;;9.69;42.34;96388.78;4951689;29;20222;-70
2022/02/13 00:33:36;;;;;;;9.63;7.53;;;;;;;10.20;41.67;96406.91;4951962;29;20679;-70
2022/02/13 00:36:03;;;;;;;8.60;6.88;;;;;;;9.91;42.55;96415.38;4951821;29;20210;-67
2022/02/13 00:38:31;;;;;;;10.05;7.13;;;;;;;9.71;42.48;96412.13;4952125;29;20314;-69
2022/02/13 00:40:58;;;;;;;9.15;6.68;;;;;;;9.87;41.55;96411.59;4951951;29;20210;-70
2022/02/13 00:43:25;;;;;;;8.68;6.85;;;;;;;9.81;41.14;96402.78;4951303;29;20215;-69
2022/02/13 00:45:52;;;;;;;10.60;7.20;;;;;;;9.91;41.48;96403.09;4952082;29;20207;-70
2022/02/13 00:48:19;;;;;;;10.85;7.05;;;;;;;9.76;42.16;96409.69;4950862;29;20649;-71
2022/02/13 00:50:46;;;;;;;8.20;6.43;;;;;;;9.68;41.50;96402.09;4951716;29;20199;-68
2022/02/13 00:53:12;;;;;;;14.35;7.03;;;;;;;9.62;41.22;96402.91;4951626;29;20905;-68
2022/02/13 00:55:39;;;;;;;11.18;7.22;;;;;;;9.84;40.93;96422.50;4934083;29;20263;-68
2022/02/13 00:58:06;;;;;;;11.05;6.80;;;;;;;10.07;40.66;96405.16;4951384;29;20267;-69
2022/02/13 01:00:33;;;;;;;13.32;6.90;;;;;;;9.92;41.23;96407.34;4951410;29;20196;-70
2022/02/13 01:03:00;;;;;;;9.93;7.00;;;;;;;9.19;42.24;96416.69;4951083;29;20235;-69
2022/02/13 01:05:27;;;;;;;9.77;6.50;;;;;;;9.44;41.59;96415.94;4949934;29;20196;-68
2022/02/13 01:07:54;;;;;;;9.73;7.15;;;;;;;9.48;41.87;96414.50;4949440;29;20694;-70
2022/02/13 01:10:21;;;;;;;10.43;7.00;;;;;;;9.55;41.69;96415.25;4951066;29;20259;-70
2022/02/13 01:12:48;;;;;;;10.32;7.20;;;;;;;8.96;42.93;96412.97;4949563;29;20314;-68
2022/02/13 01:15:15;;;;;;;10.57;6.22;;;;;;;8.96;42.79;96413.78;4950643;29;20204;-68
2022/02/13 01:17:43;;;;;;;8.70;6.47;;;;;;;8.80;43.20;96419.47;4951616;29;20196;-70
2022/02/13 01:20:11;;;;;;;9.93;6.82;;;;;;;8.86;42.61;96418.66;4948855;29;20267;-68
2022/02/13 01:22:38;;;;;;;12.20;6.72;;;;;;;8.84;42.50;96368.41;4950898;29;20251;-69
2022/02/13 01:25:05;;;;;;;8.52;6.28;;;;;;;8.97;42.01;96415.41;4950413;29;20207;-71
2022/02/13 01:27:33;;;;;;;11.45;6.53;;;;;;;9.11;41.39;96411.69;4949906;28;20244;-70
2022/02/13 01:30:00;;;;;;;10.70;6.05;;;;;;;8.76;41.55;96396.56;4949677;29;20223;-71
2022/02/13 01:32:27;;;;;;;7.88;6.28;;;;;;;8.58;41.87;96391.19;4950988;29;20204;-74
2022/02/13 01:34:53;;;;;;;8.32;6.20;;;;;;;8.92;41.27;96381.22;4949968;29;20627;-69
2022/02/13 01:37:21;;;;;;;7.95;5.88;;;;;;;8.90;41.16;96391.09;4950109;29;20196;-70
2022/02/13 01:39:48;;;;;;;7.78;5.80;;;;;;;8.88;41.37;96384.47;4949599;29;20827;-69
2022/02/13 01:42:15;;;;;;;9.45;6.75;;;;;;;9.05;41.50;96386.38;4949325;29;20231;-70
2022/02/13 01:44:42;;;;;;;8.85;6.03;;;;;;;8.36;41.84;96353.31;4950610;29;20189;-70
2022/02/13 01:47:09;;;;;;;10.23;5.50;;;;;;;8.54;41.65;96384.81;4951273;29;20679;-68
2022/02/13 01:49:35;;;;;;;7.43;5.82;;;;;;;8.65;41.66;96369.28;4950182;29;20210;-71
2022/02/13 01:52:04;;;;;;;11.25;6.43;;;;;;;8.42;41.30;96379.41;4950662;29;20596;-69
2022/02/13 01:54:31;;;;;;;8.45;6.20;;;;;;;8.91;41.02;96378.81;4950636;29;20200;-70
2022/02/13 01:56:58;;;;;;;9.88;6.57;;;;;;;9.23;39.84;96361.34;4950314;29;20206;-68
2022/02/13 01:59:25;;;;;;;9.32;5.85;;;;;;;8.96;39.86;96382.41;4948893;29;20702;-68
2022/02/13 02:01:54;;;;;;;7.45;5.63;;;;;;;9.12;39.51;96376.69;4950637;29;20232;-68
2022/02/13 02:04:21;;;;;;;8.23;5.82;;;;;;;8.62;40.04;96374.91;4950605;29;20204;-69
2022/02/13 02:06:48;;;;;;;8.32;5.93;;;;;;;9.04;39.19;96374.31;4949955;29;20203;-73
2022/02/13 02:09:15;;;;;;;16.55;5.80;;;;;;;8.80;39.82;96375.03;4950090;29;20196;-71
2022/02/13 02:11:42;;;;;;;8.50;5.22;;;;;;;8.65;39.65;96371.88;4950400;29;20230;-69
2022/02/13 02:14:09;;;;;;;7.32;4.88;;;;;;;8.63;38.94;96363.44;4950621;29;20320;-70
2022/02/13 02:16:36;;;;;;;8.43;4.55;;;;;;;8.89;38.41;96378.22;4950917;29;20208;-68
2022/02/13 02:19:08;;;;;;;6.90;4.13;;;;;;;8.73;37.50;96369.06;4949528;29;20224;-70
2022/02/13 02:21:43;;;;;;;6.15;4.40;;;;;;;8.73;37.71;96371.66;4949933;29;20690;-70
2022/02/13 02:24:14;;;;;;;5.70;4.30;;;;;;;8.86;36.98;96368.19;4949881;29;20705;-67
2022/02/13 02:26:42;;;;;;;7.45;3.80;;;;;;;9.08;36.05;96375.50;4950124;29;20203;-69
2022/02/13 02:29:09;;;;;;;7.28;4.10;;;;;;;8.51;36.09;96383.41;4949297;29;20206;-66
2022/02/13 02:31:36;;;;;;;7.18;3.80;;;;;;;8.60;36.07;96379.53;4950657;29;20219;-67
2022/02/13 02:34:03;;;;;;;9.77;3.90;;;;;;;8.93;35.63;96382.81;4950303;29;20290;-70
2022/02/13 02:36:30;;;;;;;5.10;3.38;;;;;;;8.56;35.38;96370.50;4949656;29;20204;-68
2022/02/13 02:38:57;;;;;;;4.95;3.70;;;;;;;8.97;35.09;96381.41;4949922;28;20211;-68
2022/02/13 02:41:26;;;;;;;5.63;3.17;;;;;;;8.66;35.33;96373.50;4953039;29;20242;-69
2022/02/13 02:43:52;;;;;;;6.38;3.08;;;;;;;9.01;34.69;96374.72;4952571;29;20200;-68
2022/02/13 02:46:19;;;;;;;7.38;3.25;;;;;;;8.36;35.09;96387.28;4953843;29;20758;-68
2022/02/13 02:48:46;;;;;;;5.78;3.25;;;;;;;8.93;34.80;96385.44;4952503;29;20227;-69
2022/02/13 02:51:13;;;;;;;6.25;3.30;;;;;;;8.95;35.28;96391.28;4953772;29;20210;-67
2022/02/13 02:53:42;;;;;;;6.20;3.40;;;;;;;8.78;34.54;96390.13;4953094;29;20230;-69
2022/02/13 02:56:10;;;;;;;4.40;3.45;;;;;;;9.06;34.76;96392.41;4953206;29;20295;-68
2022/02/13 02:58:38;;;;;;;7.60;3.45;;;;;;;8.72;34.67;96382.31;4953259;29;20901;-70
2022/02/13 03:01:05;;;;;;;5.85;3.03;;;;;;;8.82;34.92;96401.78;4952488;29;20591;-69
2022/02/13 03:03:33;;;;;;;5.00;3.33;;;;;;;9.00;35.30;96399.28;4953636;29;20235;-67
2022/02/13 03:06:01;;;;;;;5.65;3.65;;;;;;;8.89;35.22;96379.03;4954077;29;20286;-68
2022/02/13 03:08:28;;;;;;;8.13;3.78;;;;;;;8.54;35.97;96377.75;4953312;29;20192;-70
2022/02/13 03:10:57;;;;;;;5.60;3.58;;;;;;;8.96;35.28;96398.09;4954125;29;20200;-67
2022/02/13 03:13:26;;;;;;;6.53;3.45;;;;;;;9.02;35.35;96365.06;4955717;29;20232;-70
2022/02/13 03:15:54;;;;;;;4.78;2.78;;;;;;;8.88;35.29;96405.38;4953652;29;20211;-69
2022/02/13 03:18:21;;;;;;;5.65;3.58;;;;;;;8.84;35.38;96393.72;4953004;29;20253;-70
2022/02/13 03:20:49;;;;;;;4.57;3.08;;;;;;;8.92;35.76;96391.66;4953732;29;20683;-69
2022/02/13 03:23:18;;;;;;;6.78;3.47;;;;;;;8.93;35.08;96367.16;4953580;29;20274;-68
2022/02/13 03:25:45;;;;;;;5.53;3.15;;;;;;;8.82;35.82;96391.31;4953750;29;20302;-69
2022/02/13 03:28:12;;;;;;;8.07;4.00;;;;;;;8.93;35.36;96382.81;4953623;29;20206;-70
2022/02/13 03:30:39;;;;;;;5.32;3.60;;;;;;;8.74;35.42;96386.31;4952440;29;20678;-70
2022/02/13 03:33:05;;;;;;;8.25;3.40;;;;;;;8.72;35.62;96396.19;4953513;29;20192;-71
2022/02/13 03:35:32;;;;;;;9.38;3.35;;;;;;;9.26;34.97;96400.97;4953008;29;20583;-69
2022/02/13 03:37:59;;;;;;;7.85;3.40;;;;;;;9.06;35.51;96403.69;4953217;29;20199;-71
2022/02/13 03:40:26;;;;;;;4.13;3.00;;;;;;;8.67;36.46;96401.22;4952638;29;20654;-69
2022/02/13 03:42:53;;;;;;;5.32;3.33;;;;;;;8.89;35.73;96401.75;4953004;29;20224;-69
2022/02/13 03:45:20;;;;;;;9.40;3.60;;;;;;;8.61;36.17;96404.66;4951054;29;20222;-69
2022/02/13 03:47:47;;;;;;;5.65;3.47;;;;;;;8.88;36.42;96400.97;4951833;29;20621;-68
2022/02/13 03:50:14;;;;;;;6.15;3.63;;;;;;;8.66;36.58;96402.25;4952390;28;20290;-69
2022/02/13 03:52:41;;;;;;;5.07;3.30;;;;;;;8.57;36.24;96387.00;4952158;29;20207;-67
2022/02/13 03:55:13;;;;;;;6.25;3.60;;;;;;;8.76;36.89;96402.59;4935349;29;20232;-68
2022/02/13 03:57:40;;;;;;;4.57;3.10;;;;;;;9.03;36.54;96398.84;4952467;29;20218;-68
2022/02/13 04:00:08;;;;;;;4.63;3.20;;;;;;;8.99;36.50;96402.09;4952512;29;20204;-67
2022/02/13 04:02:39;;;;;;;6.70;3.63;;;;;;;8.81;36.35;96410.63;4952190;29;20733;-68
2022/02/13 04:05:07;;;;;;;6.97;3.35;;;;;;;8.61;36.06;96362.84;4951082;29;20196;-68
2022/02/13 04:07:36;;;;;;;5.30;3.17;;;;;;;8.94;36.03;96405.34;4952614;29;20651;-69
2022/02/13 04:10:04;;;;;;;5.07;3.55;;;;;;;8.80;36.42;96408.22;4951120;29;20200;-68
2022/02/13 04:12:30;;;;;;;5.60;3.60;;;;;;;8.85;36.44;96396.13;4952110;29;20262;-71
2022/02/13 04:14:58;;;;;;;5.53;3.95;;;;;;;8.86;36.14;96408.19;4952428;29;20567;-71
2022/02/13 04:17:25;;;;;;;7.18;3.65;;;;;;;8.72;36.40;96390.94;4952720;29;20623;-70
2022/02/13 04:19:52;;;;;;;7.95;3.60;;;;;;;8.49;36.60;96374.97;4950613;29;20200;-73
2022/02/13 04:22:18;;;;;;;4.90;3.42;;;;;;;8.86;36.07;96391.72;4951735;29;20316;-69
2022/02/13 04:24:45;;;;;;;7.10;4.10;;;;;;;8.54;37.54;96401.25;4951744;29;20204;-69
2022/02/13 04:27:12;;;;;;;6.88;4.07;;;;;;;9.19;37.16;96401.00;4952893;29;20203;-70
2022/02/13 04:29:39;;;;;;;7.78;4.40;;;;;;;9.27;36.42;96393.91;4951407;29;20196;-69
2022/02/13 04:32:06;;;;;;;6.55;3.75;;;;;;;8.83;37.47;96387.69;4951676;29;20212;-69
2022/02/13 04:34:33;;;;;;;10.00;4.90;;;;;;;8.26;37.43;96379.88;4951165;29;20242;-69
2022/02/13 04:37:00;;;;;;;11.50;4.95;;;;;;;8.43;38.04;96407.13;4951894;29;20262;-70
2022/02/13 04:39:27;;;;;;;6.53;4.30;;;;;;;8.65;37.99;96392.00;4950711;29;20290;-69
2022/02/13 04:41:54;;;;;;;7.75;4.45;;;;;;;8.79;37.93;96404.81;4951254;29;20674;-70
2022/02/13 04:44:23;;;;;;;7.53;4.65;;;;;;;8.60;38.48;96403.06;4951356;29;20232;-66
2022/02/13 04:46:50;;;;;;;8.13;4.45;;;;;;;8.60;37.94;96405.69;4951827;29;20263;-69
2022/02/13 04:49:17;;;;;;;7.78;4.80;;;;;;;8.91;38.08;96392.69;4950496;29;20202;-68
2022/02/13 04:51:44;;;;;;;10.32;4.30;;;;;;;9.06;38.15;96395.84;4950875;29;20699;-69
2022/02/13 04:54:11;;;;;;;7.88;4.70;;;;;;;8.58;38.30;96399.84;4951666;29;20211;-66
2022/02/13 04:56:38;;;;;;;6.78;4.55;;;;;;;8.56;39.56;96406.31;4951946;29;20207;-67
2022/02/13 04:59:05;;;;;;;9.27;5.18;;;;;;;8.69;39.06;96395.78;4951440;29;20564;-68
2022/02/13 05:01:32;;;;;;;8.10;4.78;;;;;;;8.90;38.83;96398.94;4951637;28;20314;-69
2022/02/13 05:03:59;;;;;;;9.48;5.50;;;;;;;8.91;38.78;96400.53;4950400;29;20224;-70
2022/02/13 05:06:26;;;;;;;10.00;5.38;;;;;;;9.00;39.32;96401.91;4951297;29;20660;-70
2022/02/13 05:08:56;;;;;;;14.90;5.70;;;;;;;8.72;39.34;96406.63;4949651;29;20180;-70
2022/02/13 05:11:23;;;;;;;10.65;6.03;;;;;;;9.07;39.59;96400.03;4951576;29;20351;-67
2022/02/13 05:13:50;;;;;;;7.30;4.97;;;;;;;8.81;39.61;96402.00;4950313;29;20242;-68
2022/02/13 05:16:17;;;;;;;9.35;6.20;;;;;;;8.90;39.05;96388.47;4951136;29;20287;-68
2022/02/13 05:18:43;;;;;;;9.38;5.22;;;;;;;8.90;40.68;96388.47;4950843;29;20703;-69
2022/02/13 05:21:11;;;;;;;8.93;5.88;;;;;;;8.73;40.67;96402.22;4951165;29;20226;-68
2022/02/13 05:23:38;;;;;;;9.88;5.55;;;;;;;9.10;40.03;96411.91;4951083;29;20219;-68
2022/02/13 05:26:04;;;;;;;11.30;5.60;;;;;;;8.97;40.15;96409.34;4951568;29;20296;-70
2022/02/13 05:28:31;;;;;;;11.88;5.40;;;;;;;9.27;39.35;96407.00;4950481;29;20231;-69
2022/02/13 05:30:58;;;;;;;8.40;5.35;;;;;;;8.92;40.22;96409.97;4951185;29;20709;-69
2022/02/13 05:33:25;;;;;;;10.52;6.18;;;;;;;8.81;39.61;96389.69;4949311;29;20203;-69
2022/02/13 05:35:52;;;;;;;13.80;6.05;;;;;;;9.34;39.29;96405.13;4949322;29;20211;-68
2022/02/13 05:38:19;;;;;;;10.30;5.45;;;;;;;8.62;39.87;96389.78;4950975;29;20231;-69
2022/02/13 05:40:46;;;;;;;8.10;5.47;;;;;;;8.70;40.74;96379.94;4949708;29;20209;-70
2022/02/13 05:43:13;;;;;;;8.38;5.22;;;;;;;8.92;40.24;96396.13;4950712;29;20236;-68
2022/02/13 05:45:41;;;;;;;10.30;5.20;;;;;;;8.93;39.65;96392.47;4950951;29;20826;-69
2022/02/13 05:48:08;;;;;;;10.15;6.47;;;;;;;9.17;40.06;96413.47;4949891;29;20196;-70
2022/02/13 05:50:37;;;;;;;7.57;5.47;;;;;;;9.26;39.64;96405.38;4950056;29;20202;-70
2022/02/13 05:53:05;;;;;;;7.65;5.22;;;;;;;9.23;39.21;96415.25;4950619;29;20196;-70
2022/02/13 05:55:32;;;;;;;9.88;5.55;;;;;;;9.17;38.99;96405.63;4949328;29;20270;-69
2022/02/13 05:57:58;;;;;;;7.75;5.28;;;;;;;9.43;39.04;96414.34;4950610;29;20199;-70
2022/02/13 06:00:25;;;;;;;10.20;5.50;;;;;;;9.25;38.89;96416.88;4950198;29;20609;-69
2022/02/13 06:02:52;;;;;;;11.75;6.10;;;;;;;9.08;39.17;96409.50;4950357;29;20736;-67
2022/02/13 06:05:19;;;;;;;12.23;5.95;;;;;;;8.59;40.99;96416.34;4949765;29;20199;-68
2022/02/13 06:07:46;;;;;;;9.18;5.60;;;;;;;8.79;40.64;96412.66;4933721;29;20623;-70
2022/02/13 06:10:13;;;;;;;11.10;5.75;;;;;;;8.97;41.64;96415.41;4950131;29;20255;-69
2022/02/13 06:12:41;;;;;;;9.23;5.55;;;;;;;8.88;40.99;96406.19;4951108;28;20207;-70
2022/02/13 06:15:09;;;;;;;9.43;5.57;;;;;;;8.63;41.17;96423.53;4956549;29;20263;-68
2022/02/13 06:17:38;;;;;;;9.15;5.80;;;;;;;8.70;40.50;96398.22;4953000;29;20682;-71
2022/02/13 06:20:06;;;;;;;10.27;5.97;;;;;;;8.73;40.85;96423.94;4954339;29;20674;-69
2022/02/13 06:22:33;;;;;;;8.80;6.05;;;;;;;8.48;41.54;96425.63;4954686;29;20262;-71
2022/02/13 06:25:00;;;;;;;14.35;6.72;;;;;;;8.76;41.77;96436.56;4954541;29;20212;-68
2022/02/13 06:27:27;;;;;;;9.32;6.15;;;;;;;8.78;41.55;96410.22;4954734;29;20207;-70
2022/02/13 06:29:57;;;;;;;13.18;8.20;;;;;;;8.94;41.40;96441.16;4953953;29;20270;-68
2022/02/13 06:32:24;;;;;;;13.10;8.13;;;;;;;8.71;41.31;96420.72;4954497;29;20219;-69
2022/02/13 06:34:50;;;;;;;13.35;6.90;;;;;;;8.58;41.79;96431.19;4954062;29;20195;-71
2022/02/13 06:37:17;;;;;;;13.50;7.40;;;;;;;8.73;41.49;96421.31;4953160;29;20208;-67
2022/02/13 06:39:44;;;;;;;13.45;7.25;;;;;;;8.71;42.39;96439.00;4953620;29;20653;-70
2022/02/13 06:42:11;;;;;;;9.75;6.90;;;;;;;8.59;41.91;96426.78;4952796;29;20278;-67
2022/02/13 06:44:38;;;;;;;12.07;7.80;;;;;;;9.00;41.10;96446.34;4953138;29;20232;-68
2022/02/13 06:47:05;;;;;;;14.13;8.55;;;;;;;8.51;42.50;96440.88;4953605;29;20258;-68
2022/02/13 06:49:32;;;;;;;13.60;8.23;;;;;;;8.33;42.63;96426.84;4952235;29;20196;-68
2022/02/13 06:52:00;;;;;;;13.15;7.57;;;;;;;8.61;42.46;96430.78;4953264;29;20199;-69
2022/02/13 06:54:26;;;;;;;14.07;7.53;;;;;;;8.82;41.88;96435.75;4954092;29;20195;-68
2022/02/13 06:56:53;;;;;;;14.95;8.13;;;;;;;8.96;41.44;96445.16;4954238;29;20212;-70
2022/02/13 06:59:22;;;;;;;11.57;7.68;;;;;;;8.40;42.63;96438.88;4953449;29;20278;-68
2022/02/13 07:01:48;;;;;;;13.20;7.72;;;;;;;8.59;42.72;96435.44;4953571;29;20207;-69
2022/02/13 07:04:15;;;;;;;9.77;7.20;;;;;;;8.92;41.86;96430.88;4953016;29;20710;-69
2022/02/13 07:06:42;;;;;;;17.73;8.40;;;;;;;9.03;41.67;96440.69;4953319;29;20207;-68
2022/02/13 07:09:09;;;;;;;15.15;9.10;;;;;;;9.10;41.30;96431.00;4952425;29;20223;-69
2022/02/13 07:11:39;;;;;;;12.27;7.90;;;;;;;8.94;41.39;96436.72;4953290;29;20204;-68
2022/02/13 07:14:06;;;;;;;11.63;7.43;;;;;;;9.00;41.81;96422.81;4951863;29;20315;-69
2022/02/13 07:16:33;;;;;;;12.30;7.82;;;;;;;8.83;41.49;96428.72;4934580;29;20196;-69
2022/02/13 07:19:00;;;;;;;10.20;7.00;;;;;;;8.44;42.31;96431.44;4952006;29;20176;-70
2022/02/13 07:21:26;;;;;;;14.57;8.23;;;;;;;8.24;42.80;96434.09;4953672;29;20698;-69
2022/02/13 07:23:53;;;;;;;13.93;9.00;;;;;;;8.60;41.73;96439.66;4952327;29;20238;-67
2022/02/13 07:26:20;;;;;;;11.93;7.97;;;;;;;8.85;41.79;96417.03;4952624;28;20199;-70
2022/02/13 07:28:59;;;;;;;15.15;8.43;;;;;;;8.61;41.59;96430.78;4953236;29;20640;-70
2022/02/13 07:31:30;;;;;;;12.90;6.65;;;;;;;8.14;42.69;96426.63;4952632;28;20239;-72
2022/02/13 07:33:57;;;;;;;12.63;7.30;;;;;;;8.39;42.93;96436.47;4952313;28;20230;-69
2022/02/13 07:36:25;;;;;;;10.95;7.22;;;;;;;8.72;42.40;96424.91;4952748;29;20310;-68
2022/02/13 07:38:52;;;;;;;11.43;6.88;;;;;;;8.67;42.35;96432.59;4951658;29;20200;-70
2022/02/13 07:41:20;;;;;;;10.18;6.95;;;;;;;9.08;42.76;96433.03;4935591;29;20208;-71
2022/02/13 07:43:47;;;;;;;13.02;7.50;;;;;;;8.84;42.40;96423.28;4953075;29;20220;-70
2022/02/13 07:46:15;;;;;;;11.45;6.85;;;;;;;8.44;43.36;96429.63;4936037;29;20242;-71
2022/02/13 07:48:42;;;;;;;13.75;7.57;;;;;;;8.47;43.68;96433.63;4950484;29;20574;-69
2022/02/13 07:51:12;;;;;;;13.57;8.10;;;;;;;8.76;42.87;96415.66;4952374;29;20283;-70
2022/02/13 07:53:45;;;;;;;10.90;7.10;;;;;;;8.66;42.77;96415.31;4952641;28;20210;-69
2022/02/13 07:56:12;;;;;;;10.75;6.75;;;;;;;8.39;43.09;96421.63;4953642;29;20690;-68
2022/02/13 07:58:39;;;;;;;12.85;7.57;;;;;;;8.36;44.01;96398.50;4951390;28;20714;-70
2022/02/13 08:01:06;;;;;;;15.32;8.13;;;;;;;8.37;44.16;96423.63;4951232;28;20202;-70
2022/02/13 08:03:37;;;;;;;12.65;7.75;;;;;;;8.94;43.28;96415.78;4934141;28;20212;-68
2022/02/13 08:06:05;;;;;;;10.60;7.10;;;;;;;8.18;43.45;96403.53;4950927;28;20859;-69
2022/02/13 08:08:36;;;;;;;11.52;7.45;;;;;;;9.04;43.19;96417.97;4933771;28;20937;-70
2022/02/13 08:11:05;;;;;;;15.35;7.20;;;;;;;9.10;45.34;96410.06;4951627;28;20255;-68
2022/02/13 08:13:32;;;;;;;13.27;7.38;;;;;;;9.34;43.77;96412.97;4950995;28;20239;-71
2022/02/13 08:15:59;;;;;;;11.27;7.53;;;;;;;9.33;43.26;96419.22;4951465;28;20604;-66
2022/02/13 08:18:26;;;;;;;10.15;6.90;;;;;;;9.06;43.63;96395.84;4950776;28;20196;-64
2022/02/13 08:20:54;;;;;;;11.07;6.95;;;;;;;9.14;42.64;96411.28;4952169;28;20270;-67
2022/02/13 08:23:23;;;;;;;13.45;7.82;;;;;;;9.06;44.09;96408.09;4952572;29;20215;-69
2022/02/13 08:25:51;;;;;;;11.02;7.75;;;;;;;9.83;42.52;96406.00;4935572;29;20198;-69
2022/02/13 08:28:18;;;;;;;11.68;7.75;;;;;;;10.01;42.26;96403.44;4952574;29;20204;-67
2022/02/13 08:30:46;;;;;;;13.80;8.13;;;;;;;9.78;42.06;96391.94;4951743;29;20303;-68
2022/02/13 08:33:15;;;;;;;11.02;7.10;;;;;;;9.20;41.73;96393.94;4950527;28;20234;-71
2022/02/13 08:35:42;;;;;;;9.80;6.80;;;;;;;8.74;42.34;96399.38;4959505;28;20357;-68
2022/02/13 08:38:09;;;;;;;10.45;7.07;;;;;;;9.47;41.29;96405.06;4936793;28;20215;-66
2022/02/13 08:40:37;;;;;;;9.40;6.93;;;;;;;9.21;41.98;96390.31;4951102;28;20683;-68
2022/02/13 08:43:04;;;;;;;16.13;7.97;;;;;;;9.56;41.10;96399.34;4951448;28;20258;-70
2022/02/13 08:45:32;;;;;;;60.55;38.42;;;;;;;9.81;40.75;96401.97;4951824;29;20192;-68
2022/02/13 08:47:59;;;;;;;15.88;8.80;;;;;;;9.36;41.22;96405.72;4952453;29;20192;-68
2022/02/13 08:50:27;;;;;;;10.70;7.15;;;;;;;9.47;41.55;96398.00;4951749;29;20643;-68
2022/02/13 08:52:54;;;;;;;15.82;7.25;;;;;;;9.49;41.74;96397.81;4950755;29;20610;-70
2022/02/13 08:55:23;;;;;;;10.00;7.05;;;;;;;9.14;41.62;96372.03;4951893;29;20210;-69
2022/02/13 08:57:50;;;;;;;11.02;6.93;;;;;;;9.03;41.22;96398.06;4951912;29;20258;-70
2022/02/13 09:00:18;;;;;;;11.60;7.03;;;;;;;9.15;41.23;96396.38;4950864;29;20786;-68
2022/02/13 09:02:46;;;;;;;11.10;7.18;;;;;;;9.36;40.94;96396.06;4951964;29;20561;-69
2022/02/13 09:05:13;;;;;;;13.70;7.50;;;;;;;9.25;41.33;96395.94;4951774;29;20223;-69
2022/02/13 09:07:41;;;;;;;14.90;7.38;;;;;;;9.58;41.22;96401.75;4952894;29;20628;-68
2022/02/13 09:10:13;;;;;;;12.38;7.68;;;;;;;9.41;40.85;96401.47;4951190;29;20204;-69
2022/02/13 09:12:41;;;;;;;10.00;6.63;;;;;;;9.50;41.16;96394.16;4951762;29;20200;-68
2022/02/13 09:15:09;;;;;;;10.88;6.97;;;;;;;9.89;39.87;96367.69;4951396;29;20388;-69
2022/02/13 09:17:39;;;;;;;12.10;6.38;;;;;;;9.13;40.68;96399.22;4935464;29;20219;-72
2022/02/13 09:20:06;;;;;;;12.65;7.13;;;;;;;9.82;39.69;96382.63;4950871;29;20234;-68
2022/02/13 09:22:34;;;;;;;18.92;13.02;;;;;;;10.28;39.88;96392.72;4951530;29;20266;-69
2022/02/13 09:25:02;;;;;;;28.48;17.63;;;;;;;10.60;38.11;96381.88;4951461;29;20226;-69
2022/02/13 09:27:29;;;;;;;12.07;7.53;;;;;;;10.09;37.80;96390.06;4951761;29;20273;-74
2022/02/13 09:29:56;;;;;;;11.57;6.90;;;;;;;9.65;38.67;96376.34;4950598;29;20204;-70
2022/02/13 09:32:25;;;;;;;11.88;7.63;;;;;;;10.24;37.68;96386.34;4951382;29;20254;-70
2022/02/13 09:34:53;;;;;;;15.70;8.18;;;;;;;10.17;37.83;96381.13;4950595;29;20263;-68
2022/02/13 09:37:20;;;;;;;11.07;7.60;;;;;;;10.22;38.50;96381.28;4951166;29;20199;-69
2022/02/13 09:39:52;;;;;;;12.65;7.93;;;;;;;10.08;38.64;96377.97;4950843;29;20211;-68
2022/02/13 09:42:20;;;;;;;12.05;8.02;;;;;;;10.06;38.53;96374.78;4951267;29;20211;-73
2022/02/13 09:44:47;;;;;;;12.88;7.80;;;;;;;10.26;37.86;96368.56;4950780;29;20278;-75
2022/02/13 09:47:15;;;;;;;11.63;8.25;;;;;;;9.81;38.43;96373.19;4951277;29;20282;-72
2022/02/13 09:49:42;;;;;;;13.73;8.35;;;;;;;10.14;38.74;96371.09;4950313;29;20203;-75
2022/02/13 09:52:11;;;;;;;13.20;8.30;;;;;;;10.07;39.03;96359.88;4950944;29;20207;-71
2022/02/13 09:54:39;;;;;;;22.25;14.07;;;;;;;9.86;39.18;96368.09;4950710;29;20204;-70
2022/02/13 10:00:02;;;;;;;16.08;11.13;;;;;;;10.76;37.66;96344.59;4950029;28;20215;-69
2022/02/13 10:02:44;;;;;;;15.32;9.52;;;;;;;10.91;37.25;96337.13;4950123;28;20647;-73
2022/02/13 10:05:19;;;;;;;12.77;8.77;;;;;;;10.30;38.63;96326.00;4948012;28;20231;-72
2022/02/13 10:07:51;;;;;;;14.63;8.40;;;;;;;10.11;38.42;96329.63;4949873;28;20196;-71
2022/02/13 10:10:20;;;;;;;16.98;8.70;;;;;;;10.34;38.08;96342.88;4950202;28;20207;-71
2022/02/13 10:12:48;;;;;;;11.48;7.85;;;;;;;10.21;38.26;96337.78;4950776;29;20247;-72
2022/02/13 10:15:22;;;;;;;11.95;8.20;;;;;;;10.58;38.42;96336.78;4932640;28;20200;-70
2022/02/13 10:17:56;;;;;;;12.55;8.18;;;;;;;10.38;38.47;96310.00;4948803;28;20200;-73
2022/02/13 10:20:32;;;;;;;11.32;7.95;;;;;;;11.41;37.32;96305.34;4949088;28;20623;-69
2022/02/13 10:23:11;;;;;;;9.75;7.68;;;;;;;11.68;36.18;96277.66;4952219;28;21071;-72
2022/02/13 10:25:39;;;;;;;10.95;7.15;;;;;;;12.28;36.06;96297.34;4949423;28;20257;-72
2022/02/13 10:28:10;;;;;;;11.77;7.05;;;;;;;12.95;35.38;96290.53;4950175;28;20196;-72
2022/02/13 10:30:46;;;;;;;12.43;7.37;;;;;;;12.88;34.71;96290.66;4949469;28;20224;-71
2022/02/13 10:33:13;;;;;;;9.50;6.40;;;;;;;13.23;34.56;96281.84;4950124;29;20445;-71
2022/02/13 10:35:40;;;;;;;10.37;7.93;;;;;;;13.30;34.25;96269.31;4950233;29;20435;-72
2022/02/13 10:38:08;;;;;;;9.93;7.80;;;;;;;13.13;33.90;96274.56;4950347;28;20443;-71
2022/02/13 10:40:35;;;;;;;12.13;7.97;;;;;;;12.52;33.95;96269.97;4948476;28;20880;-72
2022/02/13 10:43:07;;;;;;;30.67;20.07;;;;;;;12.64;33.51;96270.75;4949332;28;20447;-72
2022/02/13 10:45:35;;;;;;;16.83;8.10;;;;;;;12.65;33.89;96274.97;4949258;28;20573;-72
2022/02/13 10:48:04;;;;;;;13.10;6.47;;;;;;;12.94;33.27;96262.59;4954096;28;22230;-70
2022/02/13 10:50:37;;;;;;;9.47;6.40;;;;;;;12.38;33.84;96258.16;4948593;28;20912;-71
2022/02/13 10:53:08;;;;;;;9.23;6.80;;;;;;;12.48;33.60;96250.44;4932205;28;20450;-70
2022/02/13 10:55:37;;;;;;;8.20;6.20;;;;;;;12.27;33.95;96252.91;4948207;28;20455;-71
2022/02/13 10:58:05;;;;;;;8.10;5.20;;;;;;;12.20;33.79;96237.28;4948544;28;20451;-71
2022/02/13 11:00:32;;;;;;;10.70;6.00;;;;;;;12.12;33.49;96235.00;4949225;28;20447;-72
2022/02/13 11:03:07;;;;;;;8.97;6.80;;;;;;;12.51;33.86;96239.47;4939274;28;20438;-71
2022/02/13 11:05:35;;;;;;;9.57;7.20;;;;;;;12.78;33.43;96240.50;4951750;28;20494;-70
2022/02/13 11:08:07;;;;;;;9.03;5.73;;;;;;;12.10;33.17;96226.56;4951859;28;20485;-69
2022/02/13 11:10:40;;;;;;;9.47;6.10;;;;;;;12.44;33.33;96225.69;4951487;28;20497;-72
2022/02/13 11:13:08;;;;;;;8.53;6.13;;;;;;;12.52;32.57;96214.78;4952569;28;20543;-72
2022/02/13 11:15:38;;;;;;;10.63;6.40;;;;;;;12.77;32.95;96196.81;4949860;28;20514;-72
2022/02/13 11:18:07;;;;;;;8.87;6.53;;;;;;;12.88;32.96;96206.47;4950628;28;20299;-74
2022/02/13 11:20:36;;;;;;;6.77;5.70;;;;;;;12.41;33.09;96201.69;4949651;28;20506;-70
2022/02/13 11:23:26;;;;;;;11.90;6.50;;;;;;;12.93;32.97;96200.50;4949705;28;20459;-71
2022/02/13 11:26:09;;;;;;;97.90;76.83;;;;;;;12.72;33.43;96188.84;4950668;28;20489;-70
2022/02/13 11:28:42;;;;;;;31.03;22.23;;;;;;;13.13;32.85;96185.09;4951537;28;20974;-70
2022/02/13 11:31:39;;;;;;;10.00;5.47;;;;;;;12.96;32.94;96190.31;4951780;28;20826;-71
2022/02/13 11:34:12;;;;;;;8.67;5.60;;;;;;;12.98;33.02;96172.44;4945604;29;20463;-69
2022/02/13 11:36:48;;;;;;;9.27;5.93;;;;;;;13.35;32.98;96161.44;4953284;29;20447;-72
2022/02/13 11:39:30;;;;;;;11.10;7.87;;;;;;;13.42;31.94;96162.88;4953010;29;20479;-71
2022/02/13 11:42:01;;;;;;;10.60;6.87;;;;;;;13.80;32.10;96157.59;4952799;29;20452;-71